Time,TemperatureF,DewpointF,PressureIn,WindDirection,WindDirectionDegrees,WindSpeedMPH,WindSpeedGustMPH,Humidity,HourlyPrecipIn,Conditions,Clouds,dailyrainin,SoftwareType,DateUTC
2014-01-14 04:25:00,27.0,20.0,-100.00,North,-999,-999.0,-999.0,76,0.00,,,-99.99,,2014-01-14 10:25:00,
2014-01-14 04:57:00,31.0,23.0,-100.00,North,-999,-999.0,-999.0,73,0.00,,,-99.99,,2014-01-14 10:57:00,
2014-01-14 05:25:00,31.0,25.0,-100.00,North,-999,-999.0,-999.0,80,-99.99,,,-99.99,,2014-01-14 11:25:00,
2014-01-14 05:52:00,31.0,25.0,-100.00,North,-999,-999.0,-999.0,78,0.00,,,0.00,,2014-01-14 11:52:00,
2014-01-14 06:11:00,29.0,23.0,-100.00,North,-999,-999.0,-999.0,77,0.00,,,0.00,,2014-01-14 12:11:00,
2014-01-14 06:21:00,29.0,23.0,-100.00,North,-999,-999.0,-999.0,77,0.00,,,0.00,,2014-01-14 12:21:00,
2014-01-14 06:52:00,29.0,23.0,-100.00,North,-999,-999.0,-999.0,79,0.00,,,0.00,,2014-01-14 12:52:00,
2014-01-14 07:21:00,30.0,25.0,-100.00,North,-999,-999.0,-999.0,80,-99.99,,,0.00,,2014-01-14 13:21:00,
2014-01-14 07:52:00,28.0,22.0,-100.00,North,-999,-999.0,-999.0,78,0.00,,,0.00,,2014-01-14 13:52:00,
2014-01-14 08:22:00,30.0,24.0,-100.00,North,-999,-999.0,-999.0,79,0.00,,,0.00,,2014-01-14 14:22:00,
2014-01-14 08:52:00,33.0,24.0,-100.00,North,-999,-999.0,-999.0,70,0.00,,,0.00,,2014-01-14 14:52:00,
2014-01-14 09:22:00,40.0,23.0,-100.00,North,-999,-999.0,-999.0,52,0.00,,,0.00,,2014-01-14 15:22:00,
2014-01-14 09:53:00,45.0,22.0,-100.00,North,-999,-999.0,-999.0,39,0.00,,,-99.99,,2014-01-14 15:53:00,
2014-01-14 10:23:00,51.0,23.0,-100.00,North,-999,-999.0,-999.0,34,0.00,,,-99.99,,2014-01-14 16:23:00,
2014-01-14 10:52:00,54.0,23.0,-100.00,North,-999,-999.0,-999.0,30,0.00,,,0.00,,2014-01-14 16:52:00,
2014-01-14 11:12:00,56.0,19.0,-100.00,North,-999,-999.0,-999.0,24,0.00,,,0.00,,2014-01-14 17:12:00,
2014-01-14 11:22:00,56.0,19.0,-100.00,North,-999,-999.0,-999.0,24,0.00,,,0.00,,2014-01-14 17:22:00,
2014-01-14 11:52:00,58.0,19.0,-100.00,North,-999,-999.0,-999.0,22,0.00,,,0.00,,2014-01-14 17:52:00,
2014-01-14 12:01:00,58.0,19.0,-100.00,North,-999,-999.0,-999.0,22,0.00,,,0.00,,2014-01-14 18:01:00,
2014-01-14 12:22:00,60.0,19.0,-100.00,North,-999,-999.0,-999.0,20,-99.99,,,-99.99,,2014-01-14 18:22:00,
2014-01-14 12:52:00,61.0,21.0,-100.00,North,-999,-999.0,-999.0,21,0.00,,,0.00,,2014-01-14 18:52:00,
2014-01-14 13:22:00,63.0,21.0,-100.00,North,-999,-999.0,-999.0,20,0.00,,,0.00,,2014-01-14 19:22:00,
2014-01-14 13:52:00,64.0,22.0,-100.00,North,-999,-999.0,-999.0,20,0.00,,,0.00,,2014-01-14 19:52:00,
2014-01-14 14:22:00,68.0,18.0,-100.00,North,-999,-999.0,-999.0,15,0.00,,,0.00,,2014-01-14 20:22:00,
2014-01-14 14:52:00,68.0,21.0,-100.00,North,-999,-999.0,-999.0,17,0.00,,,0.00,,2014-01-14 20:52:00,
2014-01-14 15:21:00,65.0,20.0,-100.00,North,-999,-999.0,-999.0,18,0.00,,,-99.99,,2014-01-14 21:21:00,
2014-01-14 15:53:00,63.0,19.0,-100.00,North,-999,-999.0,-999.0,18,0.00,,,0.00,,2014-01-14 21:53:00,
2014-01-14 16:22:00,62.0,19.0,-100.00,North,-999,-999.0,-999.0,19,0.00,,,0.00,,2014-01-14 22:22:00,
2014-01-14 16:52:00,62.0,19.0,-100.00,North,-999,-999.0,-999.0,19,0.00,,,0.00,,2014-01-14 22:52:00,
2014-01-14 17:12:00,61.0,19.0,-100.00,North,-999,-999.0,-999.0,19,0.00,,,0.00,,2014-01-14 23:12:00,
2014-01-14 17:22:00,61.0,19.0,-100.00,North,-999,-999.0,-999.0,19,0.00,,,0.00,,2014-01-14 23:22:00,
2014-01-14 17:42:00,61.0,18.0,-100.00,North,-999,-999.0,-999.0,19,0.00,,,0.00,,2014-01-14 23:42:00,
2014-01-14 17:53:00,61.0,18.0,-100.00,North,-999,-999.0,-999.0,19,0.00,,,0.00,,2014-01-14 23:53:00,
2014-01-14 18:21:00,58.0,19.0,-100.00,North,-999,-999.0,-999.0,22,-99.99,,,0.00,,2014-01-15 00:21:00,
2014-01-14 18:32:00,58.0,19.0,-100.00,North,-999,-999.0,-999.0,22,-99.99,,,0.00,,2014-01-15 00:32:00,
2014-01-14 18:42:00,58.0,19.0,-100.00,North,-999,-999.0,-999.0,22,-99.99,,,0.00,,2014-01-15 00:42:00,
2014-01-14 18:52:00,58.0,19.0,-100.00,North,-999,-999.0,-999.0,22,-99.99,,,0.00,,2014-01-15 00:52:00,
2014-01-14 19:22:00,54.0,23.0,-100.00,North,-999,-999.0,-999.0,30,0.00,,,0.00,,2014-01-15 01:22:00,
2014-01-14 19:42:00,54.0,24.0,-100.00,North,-999,-999.0,-999.0,32,0.00,,,0.00,,2014-01-15 01:42:00,
2014-01-14 19:52:00,54.0,24.0,-100.00,North,-999,-999.0,-999.0,32,0.00,,,0.00,,2014-01-15 01:52:00,
2014-01-14 20:22:00,53.0,29.0,-100.00,North,-999,-999.0,-999.0,40,0.00,,,0.00,,2014-01-15 02:22:00,
2014-01-14 20:41:00,50.0,25.0,-100.00,North,-999,-999.0,-999.0,38,0.00,,,0.00,,2014-01-15 02:41:00,
2014-01-14 20:52:00,51.0,27.0,-100.00,North,-999,-999.0,-999.0,40,0.00,,,0.00,,2014-01-15 02:52:00,
2014-01-14 21:11:00,50.0,25.0,-100.00,North,-999,-999.0,-999.0,38,0.00,,,0.00,,2014-01-15 03:11:00,
2014-01-14 21:22:00,50.0,25.0,-100.00,North,-999,-999.0,-999.0,38,0.00,,,0.00,,2014-01-15 03:22:00,
2014-01-14 21:33:00,50.0,25.0,-100.00,North,-999,-999.0,-999.0,38,0.00,,,0.00,,2014-01-15 03:33:00,